Pickerel, WI (54465)

4:48 AM CST on December 25, 2014 (GMT -0600)
Lake Lucerne | Change Station
CLOSE
Current Station
Personal Weather Station
Location: Crandon, WI
Elevation: 1644 ft
Nearby Weather Stations

Elev 1644 ft 45.52 °N, 88.85 °W | Updated 0 second ago

Overcast
Overcast
28.5 °F
Feels Like 28 °F
N
0.0
Wind Variable Wind from NW
Gusts 0.0 mph

Today
High -- | Low -- °F
--% Chance of Precip.
Yesterday
High -- | Low -- °F
Precip. -- in
7:33 AM 4:17 PM
Waxing Crescent, 15% visible
Pressure 29.60 in
Visibility 10.0 miles
Clouds Scattered Clouds 1100 ft
Overcast 1900 ft
Windchill 28 °F
Dew Point 27 °F
Humidity 93%
Rainfall 0.00 in
Snow Depth Not available.
UV 0 out of 12
Pollen .10 out of 12
Air Quality Not available.
Flu Activity Not available.
METAR KAIG 251035Z AUTO 25008KT 10SM SCT011 OVC019 M02/M03 A2960 RMK AO2 T10171026

More Conditions Fewer Conditions

Pressure 29.60 in
Visibility 10.0 miles
Clouds Scattered Clouds 1100 ft
Overcast 1900 ft
Windchill 28 °F
Dew Point 27 °F
Humidity 93%
Rainfall 0.00 in
Snow Depth Not available.
UV 0 out of 12
Pollen .10 out of 12
Air Quality Not available.
Flu Activity Not available.
METAR KAIG 251035Z AUTO 25008KT 10SM SCT011 OVC019 M02/M03 A2960 RMK AO2 T10171026

More Conditions Fewer Conditions

10-Day Weather Forecast

Almanac

Astronomy

Dec. 25, 2014 Rise Set
Actual Time
Civil Twilight
Nautical Twilight
Astronomical Twilight
Moon
Length of Visible Light
Length of Day
Tomorrow will be .
, % of the Moon is Illuminated

Today's Extremes

State Highs State Lows

Community

WunderPhotos

Upload Photos

1,780,254 photos uploaded!

WunderBlogs® & News

Nearby

Air Quality

  Air Quality AQ Index Pollutant
Not available.

Snow Depth

Station Depth Elevation

Earthquake Activity

City Distance Mag. Time & Date
Minimum magnitude displayed is 2.5.

Coastal Water Temperatures

Place Temperature

Nearby Weather Stations